首页
METAR-TAF:

METAR-TAF

机场 :

底特律都会韦恩县机场

底特律, 密歇根州, 美国

纬度: 42-13-53N, 经度: 083-19-51W, 海拔: 194米

当前天气观测

该预报发布于43分钟前的07:53 UTC
静风
温度 -9°C
湿度 79%
气压 1035 hPa
能見度: 16.1公里
散云层高于25000英尺

METAR: KDTW 120753Z 00000KT 10SM SCT250 M09/M12 A3057 RMK AO2 SLP364 T10941122

时间: 03:36 (08:36 UTC)

预报

该预报发布于3小时和13分钟前的05:23 UTC
预报有效从12日的 06点(UTC)到 13日的 12点(UTC)
风速5节,风向西南
能見度: 10公里
天空无云
从 12日的 0900点(UTC)
风速4节,风向南转南东
能見度: 10公里
多云层高于10000英尺
阴天层高于25000英尺
从 12日的 1500点(UTC)
风速11节,风向南转南东
能見度: 10公里
散云层高于3500英尺
多云层高于25000英尺
从 12日的 1800点(UTC)
风速14节,风向
能見度: 10公里
多云层高于25000英尺
从 13日的 0000点(UTC)
风速11节,风向
能見度: 10公里
散云层高于25000英尺

TAF: KDTW 120523Z 1206/1312 23005KT P6SM SKC FM120900 16004KT P6SM BKN100 OVC250 FM121500 16011KT P6SM SCT035 BKN250 FM121800 17014KT P6SM BKN250 FM130000 18011KT P6SM SCT250

超过4000个机场的气象观测和天气预报(METAR&TAF报告)。

可查询的气象台以黄色和红色小点在地图上表示。

将鼠标移到小点上方,可查看气象台名称。

然后点击查看天气观测和预报。

如需切换地图:点击带黑十字的绿色按钮放大地图;点击带横线的绿色按钮缩小地图;或者点击绿色箭头查看邻近地区的地图。


METAR-TAF: